createdAt,value
2023-01-09T00:00:18.008Z,99778.84
2023-01-09T00:03:24.329Z,99782.50
2023-01-09T00:06:29.741Z,99778.69
2023-01-09T00:09:37.048Z,99785.09
2023-01-09T00:12:44.755Z,99796.25
2023-01-09T00:15:51.361Z,99781.53
2023-01-09T00:18:58.724Z,99788.37
2023-01-09T00:22:08.533Z,99796.97
2023-01-09T00:25:14.882Z,99785.75
2023-01-09T00:28:22.664Z,99789.31
2023-01-09T00:31:28.273Z,99781.69
2023-01-09T00:34:40.719Z,99782.44
2023-01-09T00:37:48.977Z,99774.91
2023-01-09T00:40:58.349Z,99769.69
2023-01-09T00:44:15.275Z,99768.97
2023-01-09T00:47:28.113Z,99764.03
2023-01-09T00:50:36.654Z,99762.63
2023-01-09T00:53:44.643Z,99762.03
2023-01-09T00:56:51.456Z,99758.25
2023-01-09T00:59:57.034Z,99752.66
2023-01-09T01:03:03.194Z,99758.06
2023-01-09T01:06:30.101Z,99745.22
2023-01-09T01:09:38.244Z,99752.16
2023-01-09T01:12:47.209Z,99748.16
2023-01-09T01:15:57.213Z,99739.44
2023-01-09T01:19:06.142Z,99743.06
2023-01-09T01:22:10.959Z,99738.91
2023-01-09T01:25:18.288Z,99738.75
2023-01-09T01:28:24.092Z,99729.28
2023-01-09T01:31:30.433Z,99728.50
2023-01-09T01:34:36.723Z,99727.69
2023-01-09T01:37:42.537Z,99721.13
2023-01-09T01:40:53.132Z,99717.72
2023-01-09T01:44:00.332Z,99704.59
2023-01-09T01:47:05.833Z,99691.44
2023-01-09T01:50:14.596Z,99696.75
2023-01-09T01:53:22.999Z,99695.59
2023-01-09T01:56:32.780Z,99685.72
2023-01-09T01:59:42.640Z,99679.81
2023-01-09T02:02:48.863Z,99680.31
2023-01-09T02:05:54.423Z,99677.66
2023-01-09T02:09:00.133Z,99676.84
2023-01-09T02:12:18.426Z,99674.34
2023-01-09T02:15:24.553Z,99671.22
2023-01-09T02:18:42.133Z,99672.22
2023-01-09T02:22:06.734Z,99665.31
2023-01-09T02:25:20.660Z,99660.38
2023-01-09T02:28:28.180Z,99661.84
2023-01-09T02:31:51.904Z,99659.34
2023-01-09T02:35:14.630Z,99646.00
2023-01-09T02:38:25.972Z,99648.81
2023-01-09T02:41:35.549Z,99647.47
2023-01-09T02:44:44.469Z,99643.87
2023-01-09T02:47:50.941Z,99639.09
2023-01-09T02:51:04.828Z,99643.03
2023-01-09T02:54:25.333Z,99648.31
2023-01-09T02:57:32.097Z,99638.91
2023-01-09T03:00:43.366Z,99632.44
2023-01-09T03:04:12.368Z,99636.59
2023-01-09T03:07:20.237Z,99627.37
2023-01-09T03:10:31.512Z,99611.69
2023-01-09T03:13:54.437Z,99615.00
2023-01-09T03:17:04.162Z,99608.22
2023-01-09T03:20:11.002Z,99610.19
2023-01-09T03:23:18.425Z,99616.50
2023-01-09T03:26:24.997Z,99618.13
2023-01-09T03:29:33.432Z,99608.25
2023-01-09T03:32:44.398Z,99614.34
2023-01-09T03:35:49.801Z,99605.94
2023-01-09T03:38:59.437Z,99604.97
2023-01-09T03:42:07.630Z,99599.69
2023-01-09T03:45:14.079Z,99608.09
2023-01-09T03:48:21.610Z,99591.59
2023-01-09T03:51:27.773Z,99589.28
2023-01-09T03:54:34.992Z,99586.94
2023-01-09T03:57:42.373Z,99586.00
2023-01-09T04:00:51.534Z,99582.53
2023-01-09T04:04:01.776Z,99579.88
2023-01-09T04:07:08.714Z,99577.41
2023-01-09T04:10:14.530Z,99580.53
2023-01-09T04:13:22.569Z,99577.09
2023-01-09T04:16:29.728Z,99580.88
2023-01-09T04:19:37.049Z,99583.84
2023-01-09T04:22:44.095Z,99584.97
2023-01-09T04:25:50.212Z,99580.22
2023-01-09T04:28:59.372Z,99582.84
2023-01-09T04:32:05.181Z,99584.66
2023-01-09T04:35:12.999Z,99587.31
2023-01-09T04:38:22.229Z,99582.84
2023-01-09T04:41:47.027Z,99590.78
2023-01-09T04:44:57.469Z,99591.25
2023-01-09T04:48:04.370Z,99601.66
2023-01-09T04:51:12.096Z,99584.81
2023-01-09T04:54:19.636Z,99583.00
2023-01-09T04:57:26.389Z,99590.59
2023-01-09T05:00:32.995Z,99584.34
2023-01-09T05:03:39.274Z,99578.25
2023-01-09T05:06:48.689Z,99574.81
2023-01-09T05:09:57.281Z,99583.69
2023-01-09T05:13:06.377Z,99578.09
2023-01-09T05:16:14.817Z,99579.56
2023-01-09T05:19:23.752Z,99577.59
2023-01-09T05:22:30.795Z,99572.47
2023-01-09T05:25:38.652Z,99573.47
2023-01-09T05:28:45.934Z,99567.19
2023-01-09T05:31:53.756Z,99561.28
2023-01-09T05:35:02.090Z,99565.41
2023-01-09T05:38:08.850Z,99561.94
2023-01-09T05:41:14.539Z,99555.16
2023-01-09T05:44:22.348Z,99561.75
2023-01-09T05:47:28.492Z,99549.88
2023-01-09T05:50:33.791Z,99548.44
2023-01-09T05:53:43.802Z,99552.03
2023-01-09T05:56:49.731Z,99551.03
2023-01-09T05:59:55.988Z,99553.88
2023-01-09T06:03:01.051Z,99563.25
2023-01-09T06:06:04.395Z,99562.28
2023-01-09T06:09:07.918Z,99560.47
2023-01-09T06:12:12.367Z,99555.66
2023-01-09T06:15:18.414Z,99560.28
2023-01-09T06:18:23.208Z,99566.53
2023-01-09T06:21:27.754Z,99555.81
2023-01-09T06:24:33.184Z,99557.47
2023-01-09T06:27:39.135Z,99566.37
2023-01-09T06:30:42.521Z,99574.13
2023-01-09T06:33:47.742Z,99575.28
2023-01-09T06:36:53.471Z,99579.22
2023-01-09T06:39:57.580Z,99579.88
2023-01-09T06:43:01.832Z,99589.91
2023-01-09T06:46:08.579Z,99594.84
2023-01-09T06:49:13.094Z,99589.75
2023-01-09T06:52:17.175Z,99588.13
2023-01-09T06:55:22.323Z,99596.03
2023-01-09T06:58:26.389Z,99593.09
2023-01-09T07:01:30.946Z,99594.06
2023-01-09T07:04:35.413Z,99590.94
2023-01-09T07:07:39.969Z,99583.34
2023-01-09T07:10:44.988Z,99597.22
2023-01-09T07:13:49.510Z,99590.78
2023-01-09T07:16:53.029Z,99582.37
2023-01-09T07:19:56.587Z,99588.97
2023-01-09T07:23:01.301Z,99589.94
2023-01-09T07:26:05.155Z,99570.16
2023-01-09T07:29:08.636Z,99572.97
2023-01-09T07:32:12.699Z,99587.31
2023-01-09T07:35:16.543Z,99577.59
2023-01-09T07:38:20.832Z,99577.59
2023-01-09T07:41:26.380Z,99575.94
2023-01-09T07:44:30.899Z,99561.59
2023-01-09T07:47:34.266Z,99549.72
2023-01-09T07:50:38.518Z,99560.41
2023-01-09T07:53:43.688Z,99556.97
2023-01-09T07:56:48.981Z,99557.31
2023-01-09T07:59:53.684Z,99559.78
2023-01-09T08:02:58.314Z,99557.31
2023-01-09T08:06:03.600Z,99549.91
2023-01-09T08:09:08.744Z,99545.13
2023-01-09T08:12:14.102Z,99548.91
2023-01-09T08:15:18.601Z,99547.12
2023-01-09T08:18:21.997Z,99552.53
2023-01-09T08:21:25.321Z,99552.37
2023-01-09T08:24:33.033Z,99549.44
2023-01-09T08:27:36.293Z,99540.66
2023-01-09T08:30:41.442Z,99523.84
2023-01-09T08:33:46.054Z,99534.75
2023-01-09T08:36:50.175Z,99551.34
2023-01-09T08:39:53.736Z,99581.28
2023-01-09T08:43:16.213Z,99557.03
2023-01-09T08:46:39.616Z,99544.00
2023-01-09T08:49:44.298Z,99545.59
2023-01-09T08:52:48.723Z,99554.50
2023-01-09T08:55:53.449Z,99555.84
2023-01-09T08:58:57.617Z,99563.03
2023-01-09T09:02:02.174Z,99562.34
2023-01-09T09:05:07.381Z,99562.28
2023-01-09T09:08:13.072Z,99560.47
2023-01-09T09:11:18.542Z,99548.41
2023-01-09T09:14:43.673Z,99542.47
2023-01-09T09:17:49.636Z,99525.81
2023-01-09T09:20:53.121Z,99524.38
2023-01-09T09:23:57.976Z,99517.25
2023-01-09T09:27:02.053Z,99505.75
2023-01-09T09:30:06.523Z,99517.44
2023-01-09T09:33:10.379Z,99515.50
2023-01-09T09:36:13.482Z,99508.06
2023-01-09T09:39:17.874Z,99502.81
2023-01-09T09:42:40.291Z,99504.28
2023-01-09T09:45:54.647Z,99499.72
2023-01-09T09:49:02.149Z,99495.56
2023-01-09T09:52:13.928Z,99500.84
2023-01-09T09:55:26.441Z,99491.97
2023-01-09T09:58:39.212Z,99491.69
2023-01-09T10:02:03.509Z,99476.50
2023-01-09T10:05:15.557Z,99484.34
2023-01-09T10:08:39.469Z,99487.91
2023-01-09T10:11:49.621Z,99496.44
2023-01-09T10:14:54.040Z,99478.66
2023-01-09T10:18:06.558Z,99468.50
2023-01-09T10:21:20.256Z,99478.00
2023-01-09T10:24:42.404Z,99478.34
2023-01-09T10:28:04.685Z,99473.59
2023-01-09T10:31:23.302Z,99474.53
2023-01-09T10:34:26.863Z,99460.72
2023-01-09T10:37:32.601Z,99462.66
2023-01-09T10:40:40.754Z,99452.84
2023-01-09T10:43:52.016Z,99449.53
2023-01-09T10:46:56.444Z,99449.84
2023-01-09T10:50:03.419Z,99442.63
2023-01-09T10:53:20.717Z,99447.75
2023-01-09T10:56:26.985Z,99443.47
2023-01-09T10:59:31.458Z,99446.09
2023-01-09T11:02:37.819Z,99430.16
2023-01-09T11:05:42.820Z,99417.03
2023-01-09T11:08:51.323Z,99425.19
2023-01-09T11:11:56.664Z,99419.16
2023-01-09T11:15:29.590Z,99405.81
2023-01-09T11:18:39.546Z,99401.09
2023-01-09T11:21:45.580Z,99389.41
2023-01-09T11:25:00.618Z,99386.97
2023-01-09T11:28:08.586Z,99386.97
2023-01-09T11:31:24.838Z,99388.94
2023-01-09T11:34:31.884Z,99394.72
2023-01-09T11:37:35.512Z,99385.25
2023-01-09T11:40:48.336Z,99385.06
2023-01-09T11:43:52.529Z,99390.19
2023-01-09T11:46:56.548Z,99385.06
2023-01-09T11:50:29.709Z,99383.06
2023-01-09T11:54:07.173Z,99384.84
2023-01-09T11:57:11.918Z,99378.28
2023-01-09T12:00:22.075Z,99383.09
2023-01-09T12:03:48.615Z,99377.66
2023-01-09T12:07:01.055Z,99378.13
2023-01-09T12:10:31.238Z,99376.81
2023-01-09T12:13:40.512Z,99365.47
2023-01-09T12:17:02.715Z,99359.88
2023-01-09T12:20:25.122Z,99350.06
2023-01-09T12:23:48.178Z,99343.78
2023-01-09T12:27:13.208Z,99340.53
2023-01-09T12:30:20.405Z,99348.28
2023-01-09T12:33:26.947Z,99352.75
2023-01-09T12:36:38.206Z,99357.50
2023-01-09T12:40:00.285Z,99348.28
2023-01-09T12:43:10.181Z,99346.81
2023-01-09T12:46:18.415Z,99346.66
2023-01-09T12:49:21.746Z,99326.91
2023-01-09T12:52:26.782Z,99323.97
2023-01-09T12:55:38.933Z,99323.31
2023-01-09T12:58:48.608Z,99312.12
2023-01-09T13:01:53.415Z,99315.91
2023-01-09T13:05:16.142Z,99312.94
2023-01-09T13:08:38.344Z,99303.72
2023-01-09T13:11:46.107Z,99309.50
2023-01-09T13:14:52.956Z,99310.25
2023-01-09T13:18:14.585Z,99311.44
2023-01-09T13:21:19.602Z,99302.84
2023-01-09T13:24:40.596Z,99296.78
2023-01-09T13:27:50.470Z,99307.31
2023-01-09T13:30:58.783Z,99302.72
2023-01-09T13:34:04.549Z,99308.66
2023-01-09T13:37:21.484Z,99306.66
2023-01-09T13:40:28.088Z,99307.50
2023-01-09T13:43:51.831Z,99308.16
2023-01-09T13:46:57.863Z,99319.00
2023-01-09T13:50:06.304Z,99317.19
2023-01-09T13:53:28.444Z,99311.75
2023-01-09T13:56:32.038Z,99312.94
2023-01-09T13:59:37.130Z,99317.53
2023-01-09T14:02:47.706Z,99317.38
2023-01-09T14:05:52.187Z,99315.72
2023-01-09T14:09:09.145Z,99318.22
2023-01-09T14:12:14.927Z,99334.50
2023-01-09T14:15:40.812Z,99336.13
2023-01-09T14:18:57.948Z,99328.53
2023-01-09T14:22:03.538Z,99324.09
2023-01-09T14:25:10.368Z,99313.88
2023-01-09T14:28:19.954Z,99317.84
2023-01-09T14:31:29.447Z,99319.69
2023-01-09T14:34:38.093Z,99311.44
2023-01-09T14:37:43.229Z,99321.97
2023-01-09T14:40:49.739Z,99316.56
2023-01-09T14:44:07.298Z,99313.44
2023-01-09T14:47:16.955Z,99309.16
2023-01-09T14:50:22.090Z,99307.16
2023-01-09T14:53:30.784Z,99298.41
2023-01-09T14:56:37.274Z,99302.56
2023-01-09T14:59:55.323Z,99295.62
2023-01-09T15:03:04.731Z,99301.22
2023-01-09T15:06:16.264Z,99307.47
2023-01-09T15:09:25.715Z,99310.09
2023-01-09T15:12:32.410Z,99311.72
2023-01-09T15:15:42.819Z,99313.91
2023-01-09T15:18:49.539Z,99306.97
2023-01-09T15:22:01.685Z,99311.91
2023-01-09T15:25:33.665Z,99312.25
2023-01-09T15:28:45.102Z,99316.16
2023-01-09T15:31:54.080Z,99316.34
2023-01-09T15:35:00.479Z,99314.22
2023-01-09T15:38:05.326Z,99317.34
2023-01-09T15:41:12.286Z,99322.41
2023-01-09T15:44:19.987Z,99320.78
2023-01-09T15:47:28.763Z,99317.34
2023-01-09T15:50:34.053Z,99309.25
2023-01-09T15:53:41.667Z,99307.25
2023-01-09T15:56:48.790Z,99307.78
2023-01-09T15:59:57.312Z,99299.22
2023-01-09T16:03:12.483Z,99298.53
2023-01-09T16:06:22.927Z,99289.38
2023-01-09T16:09:30.308Z,99283.25
2023-01-09T16:12:36.595Z,99276.50
2023-01-09T16:15:44.936Z,99272.72
2023-01-09T16:18:54.688Z,99276.50
2023-01-09T16:22:02.192Z,99271.25
2023-01-09T16:25:27.426Z,99264.50
2023-01-09T16:28:34.627Z,99266.00
2023-01-09T16:31:41.912Z,99267.31
2023-01-09T16:34:53.747Z,99274.19
2023-01-09T16:38:03.154Z,99270.59
2023-01-09T16:41:33.445Z,99266.81
2023-01-09T16:44:41.829Z,99270.91
2023-01-09T16:47:52.127Z,99264.84
2023-01-09T16:51:03.847Z,99259.91
2023-01-09T16:54:09.359Z,99261.91
2023-01-09T16:57:19.523Z,99253.50
2023-01-09T17:00:26.902Z,99257.28
2023-01-09T17:03:36.067Z,99263.03
2023-01-09T17:06:44.811Z,99254.16
2023-01-09T17:09:57.202Z,99243.31
2023-01-09T17:13:08.565Z,99242.00
2023-01-09T17:16:15.454Z,99242.31
2023-01-09T17:19:23.439Z,99240.66
2023-01-09T17:22:29.061Z,99243.97
2023-01-09T17:25:54.477Z,99251.56
2023-01-09T17:28:58.500Z,99247.41
2023-01-09T17:32:02.463Z,99245.28
2023-01-09T17:35:07.869Z,99251.56
2023-01-09T17:38:17.131Z,99257.62
2023-01-09T17:41:23.851Z,99255.16
2023-01-09T17:44:27.873Z,99249.91
2023-01-09T17:47:34.444Z,99243.47
2023-01-09T17:50:37.989Z,99252.38
2023-01-09T17:53:42.539Z,99243.31
2023-01-09T17:56:50.145Z,99231.63
2023-01-09T17:59:58.686Z,99232.81
2023-01-09T18:03:07.101Z,99226.22
2023-01-09T18:06:12.485Z,99222.94
2023-01-09T18:09:18.579Z,99218.50
2023-01-09T18:12:24.964Z,99218.97
2023-01-09T18:15:31.141Z,99217.50
2023-01-09T18:18:39.365Z,99208.78
2023-01-09T18:21:49.461Z,99206.16
2023-01-09T18:24:57.065Z,99206.47
2023-01-09T18:28:05.720Z,99208.44
2023-01-09T18:31:13.222Z,99209.28
2023-01-09T18:34:19.281Z,99209.78
2023-01-09T18:37:28.232Z,99206.31
2023-01-09T18:40:38.328Z,99204.34
2023-01-09T18:43:45.484Z,99200.25
2023-01-09T18:46:53.015Z,99196.13
2023-01-09T18:49:59.017Z,99196.28
2023-01-09T18:53:04.786Z,99193.97
2023-01-09T18:56:13.424Z,99189.22
2023-01-09T18:59:21.757Z,99182.66
2023-01-09T19:02:31.279Z,99172.13
2023-01-09T19:05:37.970Z,99172.78
2023-01-09T19:08:45.819Z,99160.63
2023-01-09T19:11:52.178Z,99163.56
2023-01-09T19:14:58.061Z,99174.25
2023-01-09T19:18:02.050Z,99182.00
2023-01-09T19:21:14.230Z,99182.16
2023-01-09T19:24:21.821Z,99185.59
2023-01-09T19:27:31.658Z,99177.03
2023-01-09T19:30:37.591Z,99177.37
2023-01-09T19:33:45.424Z,99184.28
2023-01-09T19:36:51.895Z,99177.87
2023-01-09T19:39:58.651Z,99169.81
2023-01-09T19:43:05.188Z,99171.13
2023-01-09T19:46:12.329Z,99167.84
2023-01-09T19:49:17.967Z,99171.47
2023-01-09T19:52:25.310Z,99168.34
2023-01-09T19:55:32.315Z,99163.09
2023-01-09T19:58:39.042Z,99160.63
2023-01-09T20:01:46.624Z,99156.19
2023-01-09T20:04:55.955Z,99158.00
2023-01-09T20:08:07.785Z,99154.69
2023-01-09T20:11:13.220Z,99152.06
2023-01-09T20:14:20.056Z,99146.78
2023-01-09T20:17:28.028Z,99149.44
2023-01-09T20:20:37.874Z,99144.34
2023-01-09T20:23:46.003Z,99139.09
2023-01-09T20:26:57.267Z,99130.38
2023-01-09T20:30:05.709Z,99131.19
2023-01-09T20:33:11.195Z,99131.19
2023-01-09T20:36:17.825Z,99129.38
2023-01-09T20:39:26.594Z,99128.72
2023-01-09T20:42:35.329Z,99125.28
2023-01-09T20:45:45.086Z,99119.84
2023-01-09T20:48:54.620Z,99119.50
2023-01-09T20:52:03.830Z,99119.66
2023-01-09T20:55:11.198Z,99109.97
2023-01-09T20:58:20.530Z,99115.06
2023-01-09T21:01:26.270Z,99116.22
2023-01-09T21:04:32.090Z,99109.66
2023-01-09T21:07:42.081Z,99102.91
2023-01-09T21:10:49.693Z,99105.69
2023-01-09T21:14:01.646Z,99115.75
2023-01-09T21:17:08.790Z,99110.63
2023-01-09T21:20:16.140Z,99107.34
2023-01-09T21:23:23.876Z,99104.56
2023-01-09T21:26:35.029Z,99109.81
2023-01-09T21:29:44.240Z,99103.38
2023-01-09T21:32:55.340Z,99109.97
2023-01-09T21:36:00.060Z,99108.66
2023-01-09T21:39:08.448Z,99106.16
2023-01-09T21:42:33.578Z,99104.38
2023-01-09T21:45:58.886Z,99105.69
2023-01-09T21:49:08.172Z,99108.16
2023-01-09T21:52:15.376Z,99107.03
2023-01-09T21:55:20.755Z,99115.41
2023-01-09T21:58:28.265Z,99103.72
2023-01-09T22:01:34.641Z,99108.50
2023-01-09T22:04:43.936Z,99107.69
2023-01-09T22:07:47.400Z,99102.41
2023-01-09T22:10:59.864Z,99109.00
2023-01-09T22:14:08.008Z,99117.53
2023-01-09T22:17:14.134Z,99117.19
2023-01-09T22:20:19.706Z,99102.91
2023-01-09T22:23:24.706Z,99113.59
2023-01-09T22:26:30.170Z,99107.34
2023-01-09T22:29:35.590Z,99109.34
2023-01-09T22:32:43.608Z,99112.09
2023-01-09T22:35:52.319Z,99107.03
2023-01-09T22:39:01.636Z,99108.00
2023-01-09T22:42:08.315Z,99109.81
2023-01-09T22:45:14.145Z,99111.47
2023-01-09T22:48:21.918Z,99102.91
2023-01-09T22:51:29.508Z,99108.16
2023-01-09T22:54:39.156Z,99104.56
2023-01-09T22:57:45.859Z,99088.09
2023-01-09T23:00:52.347Z,99102.25
2023-01-09T23:03:59.274Z,99100.44
2023-01-09T23:07:08.089Z,99111.78
2023-01-09T23:10:13.982Z,99107.34
2023-01-09T23:13:21.983Z,99095.16
2023-01-09T23:16:30.526Z,99096.00
2023-01-09T23:19:36.451Z,99091.75
2023-01-09T23:22:41.502Z,99100.44
2023-01-09T23:25:51.756Z,99088.25
2023-01-09T23:29:00.919Z,99096.13
2023-01-09T23:32:08.478Z,99091.72
2023-01-09T23:35:13.459Z,99097.62
2023-01-09T23:38:23.552Z,99088.56
2023-01-09T23:41:51.234Z,99085.16
2023-01-09T23:45:00.341Z,99083.31
2023-01-09T23:48:08.878Z,99078.84
2023-01-09T23:51:15.387Z,99082.66
2023-01-09T23:54:23.885Z,99077.59
2023-01-09T23:57:32.516Z,99068.72
